createdAt,value
2019-05-06T00:00:55.387Z,4.1
2019-05-06T00:05:48.620Z,4.1
2019-05-06T00:10:50.975Z,4
2019-05-06T00:15:54.369Z,4
2019-05-06T00:20:57.614Z,3.9
2019-05-06T00:25:57.861Z,3.9
2019-05-06T00:31:10.419Z,3.9
2019-05-06T00:36:04.542Z,3.8
2019-05-06T00:41:04.705Z,3.9
2019-05-06T00:46:07.003Z,3.7
2019-05-06T00:51:09.412Z,3.7
2019-05-06T00:56:13.960Z,3.7
2019-05-06T01:01:26.309Z,3.6
2019-05-06T01:06:16.189Z,3.6
2019-05-06T01:11:18.437Z,3.6
2019-05-06T01:16:20.731Z,3.7
2019-05-06T01:21:23.835Z,3.7
2019-05-06T01:26:25.445Z,3.7
2019-05-06T01:31:39.901Z,3.8
2019-05-06T01:36:29.993Z,3.9
2019-05-06T01:41:33.834Z,3.9
2019-05-06T01:46:34.566Z,4
2019-05-06T01:51:36.972Z,4
2019-05-06T01:56:39.080Z,4.1
2019-05-06T02:01:54.887Z,4.1
2019-05-06T02:06:43.928Z,4.1
2019-05-06T02:11:47.918Z,4.2
2019-05-06T02:16:48.494Z,4.3
2019-05-06T02:21:50.751Z,4.3
2019-05-06T02:26:54.229Z,4.4
2019-05-06T02:32:15.463Z,4.4
2019-05-06T02:32:26.995Z,4.4
2019-05-06T02:36:57.470Z,4.4
2019-05-06T02:41:59.903Z,4.5
2019-05-06T02:47:02.960Z,4.5
2019-05-06T02:52:04.483Z,4.5
2019-05-06T02:57:06.631Z,4.5
2019-05-06T03:02:09.137Z,4.5
2019-05-06T03:12:29.211Z,4.5
2019-05-06T03:17:32.900Z,4.5
2019-05-06T03:22:34.702Z,4.6
2019-05-06T03:27:36.078Z,4.5
2019-05-06T03:33:14.222Z,4.6
2019-05-06T03:33:37.130Z,4.6
2019-05-06T03:33:55.451Z,4.6
2019-05-06T03:37:43.794Z,4.6
2019-05-06T03:42:42.985Z,4.6
2019-05-06T03:47:45.451Z,4.6
2019-05-06T03:52:47.887Z,4.7
2019-05-06T03:57:49.914Z,4.7
2019-05-06T04:02:53.642Z,4.7
2019-05-06T04:07:54.395Z,4.7
2019-05-06T04:17:59.011Z,4.8
2019-05-06T04:23:05.911Z,4.8
2019-05-06T04:28:03.608Z,4.8
2019-05-06T04:33:06.027Z,4.8
2019-05-06T04:38:08.173Z,4.9
2019-05-06T04:43:13.371Z,4.9
2019-05-06T04:58:17.349Z,5
2019-05-06T05:03:22.513Z,5
2019-05-06T05:08:22.358Z,5.1
2019-05-06T05:13:24.238Z,5.1
2019-05-06T05:18:26.423Z,5.2
2019-05-06T05:23:28.888Z,5.2
2019-05-06T05:28:32.042Z,5.3
2019-05-06T05:33:33.411Z,5.3
2019-05-06T05:38:35.872Z,5.4
2019-05-06T05:43:39.677Z,5.4
2019-05-06T05:48:42.323Z,5.4
2019-05-06T05:53:42.714Z,5.4
2019-05-06T05:58:44.840Z,5.5
2019-05-06T06:03:47.448Z,5.5
2019-05-06T06:08:49.470Z,5.5
2019-05-06T06:13:52.344Z,5.5
2019-05-06T06:18:54.103Z,5.6
2019-05-06T06:23:56.422Z,5.7
2019-05-06T06:28:58.574Z,5.8
2019-05-06T06:34:01.987Z,5.9
2019-05-06T06:39:03.426Z,6
2019-05-06T06:44:05.496Z,6.1
2019-05-06T06:49:07.883Z,6.2
2019-05-06T06:54:12.150Z,6.3
2019-05-06T06:59:12.844Z,6.4
2019-05-06T07:04:14.626Z,6.4
2019-05-06T07:09:17.051Z,6.5
2019-05-06T07:14:19.283Z,6.6
2019-05-06T07:19:22.984Z,6.6
2019-05-06T07:24:23.885Z,6.8
2019-05-06T07:29:26.802Z,6.9
2019-05-06T07:34:28.424Z,7
2019-05-06T07:39:33.198Z,7.2
2019-05-06T07:44:33.421Z,7.2
2019-05-06T07:49:35.423Z,7.3
2019-05-06T07:54:37.604Z,7.4
2019-05-06T07:59:39.858Z,7.4
2019-05-06T08:04:42.249Z,7.4
2019-05-06T08:09:45.557Z,7.4
2019-05-06T08:14:46.971Z,7.3
2019-05-06T08:19:49.138Z,7.4
2019-05-06T08:24:53.186Z,7.5
2019-05-06T08:29:53.589Z,7.5
2019-05-06T08:34:56.043Z,7.6
2019-05-06T08:39:58.201Z,7.8
2019-05-06T08:45:02.215Z,8
2019-05-06T08:50:02.885Z,8.2
2019-05-06T08:55:05.267Z,8.4
2019-05-06T09:00:07.387Z,8.6
2019-05-06T09:05:09.628Z,8.8
2019-05-06T09:10:13.175Z,9
2019-05-06T09:15:14.241Z,9.3
2019-05-06T09:20:16.541Z,9.6
2019-05-06T09:25:18.953Z,9.9
2019-05-06T09:30:22.952Z,10.1
2019-05-06T09:35:23.389Z,10.2
2019-05-06T09:40:25.910Z,10.2
2019-05-06T09:45:28.002Z,10.1
2019-05-06T09:50:32.370Z,10.2
2019-05-06T09:55:32.667Z,10.1
2019-05-06T10:00:34.895Z,10.2
2019-05-06T10:05:37.184Z,10.3
2019-05-06T10:10:52.493Z,10.3
2019-05-06T10:15:42.796Z,10.3
2019-05-06T10:20:44.195Z,10.4
2019-05-06T10:25:46.578Z,10.5
2019-05-06T10:30:48.667Z,10.7
2019-05-06T10:35:52.894Z,11
2019-05-06T10:41:00.856Z,11.5
2019-05-06T10:45:55.545Z,11.6
2019-05-06T10:50:57.854Z,11.6
2019-05-06T10:56:02.278Z,12.6
2019-05-06T11:01:03.599Z,13.5
2019-05-06T11:06:04.684Z,13.2
2019-05-06T11:11:15.424Z,13.3
2019-05-06T11:16:09.358Z,12.8
2019-05-06T11:21:12.800Z,12.4
2019-05-06T11:26:13.954Z,11.9
2019-05-06T11:31:16.287Z,11.6
2019-05-06T11:36:18.682Z,11.4
2019-05-06T11:41:23.219Z,11.1
2019-05-06T11:46:23.260Z,11
2019-05-06T11:51:25.633Z,10.9
2019-05-06T11:56:28.112Z,10.4
2019-05-06T12:01:32.662Z,9.8
2019-05-06T12:06:33.066Z,9.3
2019-05-06T12:11:34.555Z,8.9
2019-05-06T12:16:36.949Z,8.6
2019-05-06T12:21:39.085Z,8.3
2019-05-06T12:26:42.843Z,8.1
2019-05-06T12:31:43.812Z,7.9
2019-05-06T12:36:46.015Z,7.9
2019-05-06T12:41:48.312Z,8.1
2019-05-06T12:46:52.887Z,8.2
2019-05-06T12:51:53.795Z,8.4
2019-05-06T12:56:55.306Z,8.4
2019-05-06T13:01:57.546Z,8.4
2019-05-06T13:06:59.898Z,8.5
2019-05-06T13:12:03.857Z,8.6
2019-05-06T13:17:04.498Z,8.8
2019-05-06T13:22:06.778Z,8.9
2019-05-06T13:27:09.062Z,9.1
2019-05-06T13:32:12.789Z,9.1
2019-05-06T13:37:13.827Z,9.1
2019-05-06T13:42:15.921Z,9.2
2019-05-06T13:47:18.350Z,9.5
2019-05-06T13:52:22.774Z,9.9
2019-05-06T13:57:22.959Z,10.1
2019-05-06T14:02:25.013Z,10.2
2019-05-06T14:07:27.325Z,10.3
2019-05-06T14:12:29.648Z,10.3
2019-05-06T14:17:32.737Z,10.3
2019-05-06T14:22:34.197Z,10.5
2019-05-06T14:27:36.521Z,10.6
2019-05-06T14:32:38.774Z,10.7
2019-05-06T14:37:42.169Z,10.5
2019-05-06T14:42:43.372Z,10.5
2019-05-06T14:47:46.991Z,10.4
2019-05-06T14:52:48.092Z,10.2
2019-05-06T14:57:50.782Z,10.1
2019-05-06T15:02:53.388Z,10.1
2019-05-06T15:07:54.932Z,10.2
2019-05-06T15:12:57.298Z,10.2
2019-05-06T15:17:59.373Z,10.2
2019-05-06T15:23:04.338Z,10.1
2019-05-06T15:28:04.191Z,10.1
2019-05-06T15:33:06.389Z,10.1
2019-05-06T15:38:08.701Z,10.1
2019-05-06T15:43:12.724Z,10.1
2019-05-06T15:48:13.411Z,10.3
2019-05-06T15:53:15.504Z,10.7
2019-05-06T15:58:17.841Z,10.9
2019-05-06T16:03:22.724Z,11
2019-05-06T16:08:24.554Z,11.2
2019-05-06T16:13:24.812Z,11.3
2019-05-06T16:18:27.135Z,11.3
2019-05-06T16:23:29.235Z,11.4
2019-05-06T16:28:31.575Z,11.6
2019-05-06T16:33:34.102Z,11.6
2019-05-06T16:38:36.178Z,11.5
2019-05-06T16:43:38.509Z,11.4
2019-05-06T16:48:45.139Z,11.3
2019-05-06T16:53:43.121Z,11.1
2019-05-06T16:58:47.218Z,10.9
2019-05-06T17:03:47.958Z,10.8
2019-05-06T17:08:50.161Z,10.6
2019-05-06T17:13:52.413Z,10.5
2019-05-06T17:18:56.786Z,10.5
2019-05-06T17:23:56.835Z,10.4
2019-05-06T17:28:59.071Z,10.3
2019-05-06T17:34:02.548Z,10.3
2019-05-06T17:39:03.933Z,10.2
2019-05-06T17:44:05.949Z,10.1
2019-05-06T17:49:08.398Z,10
2019-05-06T17:54:12.343Z,10
2019-05-06T17:59:12.899Z,9.9
2019-05-06T18:04:15.251Z,9.8
2019-05-06T18:09:17.574Z,9.7
2019-05-06T18:14:19.875Z,9.7
2019-05-06T18:19:22.336Z,9.6
2019-05-06T18:24:24.349Z,9.5
2019-05-06T18:29:26.668Z,9.4
2019-05-06T18:34:28.958Z,9.3
2019-05-06T18:39:33.687Z,9.2
2019-05-06T18:44:33.704Z,9.1
2019-05-06T18:49:35.825Z,9.1
2019-05-06T18:54:38.207Z,9
2019-05-06T18:59:42.478Z,9
2019-05-06T19:04:42.698Z,8.9
2019-05-06T19:09:45.026Z,8.8
2019-05-06T19:14:47.350Z,8.8
2019-05-06T19:19:51.896Z,8.7
2019-05-06T19:24:52.115Z,8.7
2019-05-06T19:29:54.649Z,8.6
2019-05-06T19:34:56.662Z,8.5
2019-05-06T19:39:58.755Z,8.4
2019-05-06T19:45:02.483Z,8.4
2019-05-06T19:50:03.535Z,8.3
2019-05-06T19:55:05.725Z,8.2
2019-05-06T20:00:07.962Z,8.1
2019-05-06T20:05:12.092Z,8.1
2019-05-06T20:10:12.464Z,8
2019-05-06T20:15:14.848Z,8
2019-05-06T20:20:17.164Z,7.9
2019-05-06T20:25:19.488Z,7.8
2019-05-06T20:30:21.980Z,7.8
2019-05-06T20:35:23.929Z,7.7
2019-05-06T20:40:26.300Z,7.7
2019-05-06T20:45:28.550Z,7.6
2019-05-06T20:50:32.167Z,7.5
2019-05-06T20:55:35.578Z,7.4
2019-05-06T21:00:35.357Z,7.2
2019-05-06T21:05:37.828Z,7.1
2019-05-06T21:10:42.368Z,6.9
2019-05-06T21:15:43.180Z,6.8
2019-05-06T21:20:44.696Z,6.7
2019-05-06T21:25:46.907Z,6.6
2019-05-06T21:30:49.263Z,6.5
2019-05-06T21:35:52.286Z,6.4
2019-05-06T21:40:53.751Z,6.3
2019-05-06T21:45:56.187Z,6.2
2019-05-06T21:50:58.307Z,6.1
2019-05-06T21:56:02.179Z,6
2019-05-06T22:01:02.965Z,5.9
2019-05-06T22:06:06.298Z,5.8
2019-05-06T22:11:07.635Z,5.7
2019-05-06T22:16:12.256Z,5.7
2019-05-06T22:21:12.331Z,5.6
2019-05-06T22:26:16.302Z,5.6
2019-05-06T22:31:16.646Z,5.6
2019-05-06T22:36:19.087Z,5.6
2019-05-06T22:41:23.044Z,5.6
2019-05-06T22:46:23.686Z,5.6
2019-05-06T22:51:25.887Z,5.6
2019-05-06T22:56:28.152Z,5.6
2019-05-06T23:01:32.476Z,5.6
2019-05-06T23:06:33.040Z,5.5
2019-05-06T23:11:35.036Z,5.5
2019-05-06T23:16:37.367Z,5.4
2019-05-06T23:21:39.772Z,5.4
2019-05-06T23:26:41.990Z,5.3
2019-05-06T23:31:44.334Z,5.3
2019-05-06T23:36:46.634Z,5.3
2019-05-06T23:41:48.942Z,5.3
2019-05-06T23:46:52.749Z,5.3
2019-05-06T23:51:53.452Z,5.1
2019-05-06T23:56:55.656Z,5
